createdAt,value
2024-05-09T00:01:09.121Z,100.00
2024-05-09T00:03:39.203Z,100.00
2024-05-09T00:06:12.044Z,100.00
2024-05-09T00:08:42.247Z,100.00
2024-05-09T00:11:12.488Z,100.00
2024-05-09T00:13:45.251Z,100.00
2024-05-09T00:16:15.298Z,100.00
2024-05-09T00:18:45.395Z,100.00
2024-05-09T00:21:16.211Z,100.00
2024-05-09T00:23:46.259Z,100.00
2024-05-09T00:26:18.253Z,100.00
2024-05-09T00:28:51.112Z,100.00
2024-05-09T00:31:21.122Z,100.00
2024-05-09T00:33:51.280Z,100.00
2024-05-09T00:36:21.473Z,100.00
2024-05-09T00:38:51.456Z,100.00
2024-05-09T00:41:21.482Z,100.00
2024-05-09T00:43:54.175Z,100.00
2024-05-09T00:46:24.418Z,100.00
2024-05-09T00:48:54.787Z,100.00
2024-05-09T00:51:25.060Z,100.00
2024-05-09T00:53:55.492Z,100.00
2024-05-09T00:56:25.972Z,100.00
2024-05-09T00:58:59.031Z,100.00
2024-05-09T01:01:29.315Z,100.00
2024-05-09T01:03:59.485Z,100.00
2024-05-09T01:06:29.539Z,100.00
2024-05-09T01:08:59.612Z,100.00
2024-05-09T01:11:36.405Z,100.00
2024-05-09T01:14:09.455Z,100.00
2024-05-09T01:16:39.909Z,100.00
2024-05-09T01:19:22.772Z,100.00
2024-05-09T01:21:52.912Z,100.00
2024-05-09T01:24:25.604Z,100.00
2024-05-09T01:26:55.623Z,100.00
2024-05-09T01:29:25.890Z,100.00
2024-05-09T01:31:59.196Z,100.00
2024-05-09T01:34:29.414Z,100.00
2024-05-09T01:36:59.430Z,100.00
2024-05-09T01:39:32.029Z,100.00
2024-05-09T01:42:02.105Z,100.00
2024-05-09T01:44:32.172Z,100.00
2024-05-09T01:47:02.308Z,100.00
2024-05-09T01:49:35.391Z,100.00
2024-05-09T01:52:05.625Z,100.00
2024-05-09T01:54:38.234Z,100.00
2024-05-09T01:57:08.345Z,100.00
2024-05-09T01:59:39.447Z,100.00
2024-05-09T02:02:10.118Z,100.00
2024-05-09T02:04:40.481Z,100.00
2024-05-09T02:07:10.574Z,100.00
2024-05-09T02:09:43.311Z,100.00
2024-05-09T02:12:13.414Z,100.00
2024-05-09T02:14:43.486Z,100.00
2024-05-09T02:17:13.574Z,100.00
2024-05-09T02:19:43.652Z,100.00
2024-05-09T02:22:13.669Z,100.00
2024-05-09T02:24:46.311Z,100.00
2024-05-09T02:27:16.719Z,100.00
2024-05-09T02:29:47.991Z,100.00
2024-05-09T02:32:18.217Z,100.00
2024-05-09T02:34:48.393Z,100.00
2024-05-09T02:37:18.539Z,100.00
2024-05-09T02:39:48.514Z,100.00
2024-05-09T02:42:18.512Z,100.00
2024-05-09T02:44:45.929Z,100.00
2024-05-09T02:47:16.125Z,100.00
2024-05-09T02:49:43.655Z,100.00
2024-05-09T02:52:13.676Z,100.00
2024-05-09T02:54:41.086Z,100.00
2024-05-09T02:57:13.883Z,100.00
2024-05-09T02:59:43.457Z,100.00
2024-05-09T03:02:13.811Z,100.00
2024-05-09T03:04:42.284Z,100.00
2024-05-09T03:07:12.297Z,100.00
2024-05-09T03:09:39.828Z,100.00
2024-05-09T03:12:12.932Z,100.00
2024-05-09T03:14:40.564Z,100.00
2024-05-09T03:17:10.768Z,100.00
2024-05-09T03:19:38.323Z,100.00
2024-05-09T03:22:08.381Z,100.00
2024-05-09T03:24:35.796Z,100.00
2024-05-09T03:27:06.189Z,100.00
2024-05-09T03:29:37.067Z,100.00
2024-05-09T03:32:07.863Z,100.00
2024-05-09T03:34:35.529Z,100.00
2024-05-09T03:37:05.721Z,100.00
2024-05-09T03:39:35.871Z,100.00
2024-05-09T03:42:06.333Z,100.00
2024-05-09T03:44:38.950Z,100.00
2024-05-09T03:47:06.522Z,100.00
2024-05-09T03:49:36.689Z,100.00
2024-05-09T03:52:05.405Z,100.00
2024-05-09T03:54:37.652Z,100.00
2024-05-09T03:57:06.028Z,100.00
2024-05-09T03:59:37.131Z,100.00
2024-05-09T04:02:07.702Z,100.00
2024-05-09T04:04:38.621Z,100.00
2024-05-09T04:07:06.122Z,99.82
2024-05-09T04:09:36.167Z,97.94
2024-05-09T04:12:04.011Z,96.52
2024-05-09T04:14:34.421Z,94.87
2024-05-09T04:17:01.910Z,92.66
2024-05-09T04:19:34.662Z,91.01
2024-05-09T04:22:02.145Z,88.58
2024-05-09T04:24:32.425Z,86.92
2024-05-09T04:26:59.871Z,85.10
2024-05-09T04:29:30.039Z,84.88
2024-05-09T04:31:57.664Z,83.45
2024-05-09T04:34:27.803Z,81.05
2024-05-09T04:36:57.885Z,79.59
2024-05-09T04:39:27.920Z,79.94
2024-05-09T04:41:55.530Z,80.17
2024-05-09T04:44:25.713Z,81.43
2024-05-09T04:46:53.274Z,82.00
2024-05-09T04:49:23.483Z,81.95
2024-05-09T04:51:50.967Z,81.23
2024-05-09T04:54:33.528Z,81.90
2024-05-09T04:57:03.827Z,82.90
2024-05-09T04:59:33.944Z,84.66
2024-05-09T05:02:01.767Z,85.91
2024-05-09T05:04:32.142Z,86.38
2024-05-09T05:07:02.700Z,86.84
2024-05-09T05:09:35.620Z,87.22
2024-05-09T05:12:23.210Z,87.43
2024-05-09T05:14:53.314Z,87.00
2024-05-09T05:17:20.861Z,86.39
2024-05-09T05:19:51.127Z,85.98
2024-05-09T05:22:21.178Z,85.31
2024-05-09T05:24:51.240Z,85.23
2024-05-09T05:27:21.237Z,84.72
2024-05-09T05:29:48.672Z,84.27
2024-05-09T05:32:18.798Z,83.99
2024-05-09T05:34:46.346Z,84.50
2024-05-09T05:37:16.399Z,84.06
2024-05-09T05:39:43.810Z,83.97
2024-05-09T05:42:19.628Z,82.49
2024-05-09T05:44:47.041Z,81.54
2024-05-09T05:47:17.141Z,81.82
2024-05-09T05:49:44.595Z,81.25
2024-05-09T05:52:14.990Z,80.24
2024-05-09T05:54:42.478Z,81.13
2024-05-09T05:57:13.731Z,80.02
2024-05-09T05:59:43.768Z,79.24
2024-05-09T06:02:14.799Z,80.29
2024-05-09T06:04:42.450Z,79.76
2024-05-09T06:07:12.589Z,79.13
2024-05-09T06:09:40.026Z,77.21
2024-05-09T06:12:10.190Z,76.85
2024-05-09T06:14:38.298Z,77.15
2024-05-09T06:17:11.515Z,74.80
2024-05-09T06:19:39.175Z,74.77
2024-05-09T06:22:09.728Z,74.41
2024-05-09T06:24:37.290Z,73.54
2024-05-09T06:27:08.654Z,71.97
2024-05-09T06:29:38.458Z,72.69
2024-05-09T06:32:11.239Z,72.79
2024-05-09T06:34:38.942Z,72.29
2024-05-09T06:37:09.047Z,70.45
2024-05-09T06:39:36.533Z,70.84
2024-05-09T06:42:07.087Z,70.15
2024-05-09T06:44:37.139Z,68.97
2024-05-09T06:47:04.860Z,68.02
2024-05-09T06:49:37.798Z,69.41
2024-05-09T06:52:06.163Z,68.42
2024-05-09T06:54:37.683Z,68.92
2024-05-09T06:57:05.323Z,67.78
2024-05-09T06:59:35.419Z,67.17
2024-05-09T07:02:05.804Z,65.51
2024-05-09T07:04:36.235Z,65.11
2024-05-09T07:07:09.350Z,65.75
2024-05-09T07:09:36.811Z,65.21
2024-05-09T07:12:07.966Z,64.88
2024-05-09T07:14:36.963Z,64.93
2024-05-09T07:17:08.258Z,64.31
2024-05-09T07:19:38.500Z,63.94
2024-05-09T07:22:08.731Z,64.03
2024-05-09T07:24:37.334Z,62.69
2024-05-09T07:27:07.798Z,61.98
2024-05-09T07:29:38.378Z,61.61
2024-05-09T07:32:09.374Z,61.86
2024-05-09T07:34:39.448Z,61.56
2024-05-09T07:37:12.796Z,62.38
2024-05-09T07:39:40.467Z,61.66
2024-05-09T07:42:10.708Z,61.56
2024-05-09T07:44:38.194Z,59.03
2024-05-09T07:48:14.644Z,59.11
2024-05-09T07:51:48.024Z,59.47
2024-05-09T07:53:35.271Z,59.72
2024-05-09T07:55:37.650Z,58.78
2024-05-09T07:58:08.280Z,57.84
2024-05-09T08:00:35.878Z,55.61
2024-05-09T08:03:06.065Z,55.16
2024-05-09T08:05:38.243Z,54.39
2024-05-09T08:08:09.096Z,54.99
2024-05-09T08:10:36.646Z,55.55
2024-05-09T08:13:07.108Z,56.26
2024-05-09T08:15:34.673Z,55.54
2024-05-09T08:18:04.988Z,56.58
2024-05-09T08:20:35.253Z,56.96
2024-05-09T08:23:08.669Z,57.07
2024-05-09T08:25:37.076Z,55.06
2024-05-09T08:28:07.555Z,56.08
2024-05-09T08:30:37.350Z,56.10
2024-05-09T08:33:09.019Z,55.94
2024-05-09T08:35:36.564Z,55.56
2024-05-09T08:38:09.898Z,55.34
2024-05-09T08:40:38.218Z,54.92
2024-05-09T08:43:12.091Z,53.80
2024-05-09T08:45:43.879Z,53.34
2024-05-09T08:48:16.913Z,52.56
2024-05-09T08:50:45.599Z,52.72
2024-05-09T08:53:18.651Z,52.96
2024-05-09T08:55:46.815Z,52.04
2024-05-09T08:58:20.292Z,51.60
2024-05-09T09:00:49.379Z,51.88
2024-05-09T09:03:21.527Z,52.35
2024-05-09T09:05:55.922Z,52.70
2024-05-09T09:08:29.082Z,49.96
2024-05-09T09:10:58.631Z,51.08
2024-05-09T09:13:29.011Z,50.56
2024-05-09T09:15:58.674Z,51.51
2024-05-09T09:18:30.337Z,51.29
2024-05-09T09:20:58.656Z,50.93
2024-05-09T09:23:31.319Z,50.66
2024-05-09T09:25:59.607Z,51.05
2024-05-09T09:28:29.701Z,49.97
2024-05-09T09:31:01.803Z,50.20
2024-05-09T09:33:33.093Z,50.21
2024-05-09T09:36:00.789Z,48.78
2024-05-09T09:38:34.117Z,49.06
2024-05-09T09:41:06.724Z,50.33
2024-05-09T09:43:36.823Z,48.32
2024-05-09T09:46:07.955Z,47.77
2024-05-09T09:48:42.584Z,48.71
2024-05-09T09:51:10.513Z,48.86
2024-05-09T09:53:44.729Z,48.48
2024-05-09T09:56:13.351Z,48.57
2024-05-09T09:58:46.387Z,46.88
2024-05-09T10:01:14.025Z,46.08
2024-05-09T10:03:45.943Z,44.54
2024-05-09T10:06:14.508Z,45.67
2024-05-09T10:08:48.497Z,44.79
2024-05-09T10:11:20.123Z,44.51
2024-05-09T10:13:50.223Z,43.76
2024-05-09T10:16:21.191Z,45.75
2024-05-09T10:18:51.706Z,44.92
2024-05-09T10:21:20.334Z,43.32
2024-05-09T10:24:02.911Z,42.45
2024-05-09T10:26:32.011Z,41.91
2024-05-09T10:29:03.425Z,42.92
2024-05-09T10:31:31.316Z,43.39
2024-05-09T10:34:03.372Z,42.66
2024-05-09T10:36:31.146Z,41.36
2024-05-09T10:39:03.941Z,41.39
2024-05-09T10:41:31.361Z,41.29
2024-05-09T10:44:01.370Z,42.31
2024-05-09T10:46:28.927Z,43.48
2024-05-09T10:49:04.210Z,40.23
2024-05-09T10:51:33.941Z,41.15
2024-05-09T10:54:07.859Z,42.39
2024-05-09T10:56:35.356Z,41.57
2024-05-09T10:59:06.318Z,40.71
2024-05-09T11:01:33.850Z,41.86
2024-05-09T11:04:04.406Z,41.35
2024-05-09T11:06:32.322Z,41.20
2024-05-09T11:09:02.679Z,39.96
2024-05-09T11:11:32.851Z,40.03
2024-05-09T11:14:02.858Z,40.92
2024-05-09T11:16:30.381Z,41.06
2024-05-09T11:18:58.996Z,41.76
2024-05-09T11:21:29.539Z,43.67
2024-05-09T11:23:57.274Z,43.26
2024-05-09T11:26:29.453Z,41.59
2024-05-09T11:28:59.591Z,40.96
2024-05-09T11:31:29.774Z,39.50
2024-05-09T11:34:00.186Z,40.47
2024-05-09T11:36:30.322Z,38.98
2024-05-09T11:38:57.818Z,40.80
2024-05-09T11:41:30.518Z,40.41
2024-05-09T11:44:00.497Z,38.74
2024-05-09T11:46:31.202Z,39.54
2024-05-09T11:48:58.803Z,40.95
2024-05-09T11:51:28.987Z,42.52
2024-05-09T11:53:56.598Z,42.17
2024-05-09T11:56:26.629Z,42.71
2024-05-09T11:58:54.314Z,44.72
2024-05-09T12:01:28.020Z,43.54
2024-05-09T12:03:55.888Z,43.39
2024-05-09T12:06:26.098Z,40.75
2024-05-09T12:08:53.627Z,42.52
2024-05-09T12:11:24.006Z,40.03
2024-05-09T12:13:51.588Z,40.14
2024-05-09T12:16:21.793Z,38.62
2024-05-09T12:18:52.038Z,39.94
2024-05-09T12:21:22.087Z,38.43
2024-05-09T12:23:49.535Z,38.61
2024-05-09T12:26:19.639Z,37.24
2024-05-09T12:28:47.071Z,38.24
2024-05-09T12:31:17.161Z,37.93
2024-05-09T12:33:44.737Z,37.91
2024-05-09T12:36:17.380Z,38.30
2024-05-09T12:38:45.938Z,38.09
2024-05-09T12:41:15.946Z,39.08
2024-05-09T12:43:43.344Z,39.08
2024-05-09T12:46:13.514Z,37.43
2024-05-09T12:48:41.243Z,38.24
2024-05-09T12:51:11.346Z,37.21
2024-05-09T12:53:41.377Z,37.97
2024-05-09T12:56:11.410Z,37.19
2024-05-09T12:58:39.014Z,37.14
2024-05-09T13:01:09.102Z,36.92
2024-05-09T13:03:36.972Z,37.56
2024-05-09T13:06:07.320Z,36.06
2024-05-09T13:08:34.939Z,36.44
2024-05-09T13:11:08.141Z,36.28
2024-05-09T13:13:35.825Z,35.62
2024-05-09T13:16:06.160Z,36.64
2024-05-09T13:18:35.907Z,36.64
2024-05-09T13:21:06.237Z,37.17
2024-05-09T13:23:33.680Z,36.36
2024-05-09T13:26:03.721Z,36.19
2024-05-09T13:28:34.009Z,35.58
2024-05-09T13:31:04.437Z,36.06
2024-05-09T13:33:32.059Z,35.12
2024-05-09T13:36:02.229Z,35.82
2024-05-09T13:38:29.652Z,35.82
2024-05-09T13:40:59.676Z,35.15
2024-05-09T13:43:27.302Z,36.11
2024-05-09T13:46:00.155Z,35.77
2024-05-09T13:48:27.642Z,35.67
2024-05-09T13:50:57.986Z,34.47
2024-05-09T13:53:25.472Z,34.45
2024-05-09T13:55:55.571Z,35.66
2024-05-09T13:58:23.631Z,34.79
2024-05-09T14:00:53.838Z,35.11
2024-05-09T14:03:24.685Z,35.14
2024-05-09T14:05:55.058Z,34.88
2024-05-09T14:08:23.093Z,36.16
2024-05-09T14:10:53.966Z,37.35
2024-05-09T14:13:21.942Z,36.27
2024-05-09T14:15:52.391Z,36.39
2024-05-09T14:18:20.018Z,36.19
2024-05-09T14:20:52.671Z,35.71
2024-05-09T14:23:20.114Z,35.47
2024-05-09T14:25:52.977Z,36.31
2024-05-09T14:28:21.998Z,35.63
2024-05-09T14:30:52.170Z,34.04
2024-05-09T14:33:25.421Z,34.84
2024-05-09T14:35:58.206Z,34.07
2024-05-09T14:38:27.768Z,35.82
2024-05-09T14:40:57.951Z,35.49
2024-05-09T14:43:25.690Z,35.81
2024-05-09T14:45:56.137Z,34.65
2024-05-09T14:48:23.846Z,35.16
2024-05-09T14:50:53.990Z,34.14
2024-05-09T14:53:23.975Z,34.70
2024-05-09T14:55:54.131Z,34.56
2024-05-09T14:58:21.858Z,33.64
2024-05-09T15:00:52.356Z,33.12
2024-05-09T15:03:21.318Z,31.35
2024-05-09T15:05:52.683Z,31.91
2024-05-09T15:08:20.494Z,29.80
2024-05-09T15:10:53.327Z,28.08
2024-05-09T15:13:21.411Z,28.13
2024-05-09T15:15:51.919Z,27.32
2024-05-09T15:18:19.961Z,27.24
2024-05-09T15:20:50.187Z,26.47
2024-05-09T15:23:17.709Z,26.52
2024-05-09T15:25:47.894Z,25.26
2024-05-09T15:28:18.616Z,27.08
2024-05-09T15:30:48.901Z,27.94
2024-05-09T15:33:17.635Z,27.37
2024-05-09T15:35:48.073Z,29.10
2024-05-09T15:38:15.975Z,29.67
2024-05-09T15:40:46.308Z,29.37
2024-05-09T15:43:14.174Z,30.85
2024-05-09T15:45:46.938Z,29.74
2024-05-09T15:48:14.719Z,30.48
2024-05-09T15:50:45.319Z,29.46
2024-05-09T15:53:13.846Z,28.70
2024-05-09T15:55:44.277Z,28.78
2024-05-09T15:58:12.589Z,28.43
2024-05-09T16:00:48.784Z,28.66
2024-05-09T16:03:18.168Z,28.45
2024-05-09T16:05:48.793Z,29.95
2024-05-09T16:08:16.756Z,29.56
2024-05-09T16:10:48.083Z,29.47
2024-05-09T16:13:16.642Z,28.82
2024-05-09T16:15:50.423Z,29.21
2024-05-09T16:18:18.698Z,29.68
2024-05-09T16:20:50.241Z,28.97
2024-05-09T16:23:18.061Z,27.95
2024-05-09T16:25:49.016Z,28.03
2024-05-09T16:28:16.815Z,30.86
2024-05-09T16:30:46.977Z,30.47
2024-05-09T16:33:20.934Z,31.96
2024-05-09T16:35:51.319Z,33.78
2024-05-09T16:38:19.276Z,33.79
2024-05-09T16:40:49.829Z,33.60
2024-05-09T16:43:17.552Z,34.23
2024-05-09T16:45:47.826Z,35.80
2024-05-09T16:48:18.083Z,36.30
2024-05-09T16:50:48.189Z,36.44
2024-05-09T16:53:15.763Z,37.18
2024-05-09T16:55:45.805Z,37.53
2024-05-09T16:58:13.529Z,37.82
2024-05-09T17:00:44.475Z,38.61
2024-05-09T17:03:14.874Z,38.83
2024-05-09T17:05:50.603Z,38.88
2024-05-09T17:08:18.694Z,38.54
2024-05-09T17:10:49.967Z,40.61
2024-05-09T17:13:20.892Z,40.13
2024-05-09T17:15:51.389Z,40.70
2024-05-09T17:18:22.365Z,40.75
2024-05-09T17:20:52.714Z,43.21
2024-05-09T17:23:22.793Z,41.67
2024-05-09T17:25:50.247Z,42.08
2024-05-09T17:28:20.714Z,42.56
2024-05-09T17:30:48.664Z,42.62
2024-05-09T17:33:18.948Z,42.64
2024-05-09T17:35:50.401Z,43.30
2024-05-09T17:38:24.992Z,44.38
2024-05-09T17:40:53.623Z,45.07
2024-05-09T17:43:23.904Z,45.41
2024-05-09T17:45:51.479Z,46.70
2024-05-09T17:48:21.907Z,47.69
2024-05-09T17:50:52.287Z,47.70
2024-05-09T17:53:22.320Z,48.90
2024-05-09T17:55:53.981Z,49.61
2024-05-09T17:58:21.683Z,50.55
2024-05-09T18:00:51.917Z,50.60
2024-05-09T18:03:20.040Z,51.13
2024-05-09T18:05:50.200Z,54.05
2024-05-09T18:08:17.732Z,55.06
2024-05-09T18:10:52.082Z,57.06
2024-05-09T18:15:51.127Z,59.31
2024-05-09T18:18:18.819Z,59.00
2024-05-09T18:20:49.187Z,60.53
2024-05-09T18:23:18.112Z,59.79
2024-05-09T18:25:54.721Z,61.27
2024-05-09T18:28:22.867Z,62.44
2024-05-09T18:30:52.966Z,63.75
2024-05-09T18:33:20.772Z,64.38
2024-05-09T18:35:50.922Z,64.68
2024-05-09T18:38:25.523Z,65.13
2024-05-09T18:40:55.807Z,66.21
2024-05-09T18:43:31.180Z,66.80
2024-05-09T18:46:05.599Z,67.91
2024-05-09T18:48:37.088Z,66.74
2024-05-09T18:51:05.666Z,66.85
2024-05-09T18:53:35.745Z,67.79
2024-05-09T18:56:07.172Z,67.75
2024-05-09T18:58:37.215Z,67.96
2024-05-09T19:01:05.006Z,68.51
2024-05-09T19:03:35.534Z,69.38
2024-05-09T19:06:03.352Z,69.17
2024-05-09T19:08:33.475Z,69.68
2024-05-09T19:11:02.021Z,70.87
2024-05-09T19:13:34.951Z,71.89
2024-05-09T19:16:03.364Z,72.06
2024-05-09T19:18:33.814Z,72.73
2024-05-09T19:21:01.819Z,73.39
2024-05-09T19:23:35.352Z,73.04
2024-05-09T19:26:05.533Z,73.48
2024-05-09T19:28:38.175Z,74.03
2024-05-09T19:31:05.741Z,75.07
2024-05-09T19:33:36.993Z,75.77
2024-05-09T19:36:05.598Z,75.53
2024-05-09T19:38:35.983Z,75.44
2024-05-09T19:41:03.784Z,75.46
2024-05-09T19:43:35.848Z,75.26
2024-05-09T19:46:06.258Z,75.74
2024-05-09T19:48:36.574Z,75.25
2024-05-09T19:51:04.278Z,74.88
2024-05-09T19:53:34.456Z,74.70
2024-05-09T19:56:01.878Z,75.00
2024-05-09T19:58:31.958Z,76.98
2024-05-09T20:00:59.506Z,77.47
2024-05-09T20:03:36.863Z,77.54
2024-05-09T20:06:04.740Z,77.25
2024-05-09T20:08:34.751Z,76.78
2024-05-09T20:11:02.388Z,78.00
2024-05-09T20:13:32.496Z,78.39
2024-05-09T20:16:01.373Z,78.62
2024-05-09T20:18:34.219Z,80.98
2024-05-09T20:21:02.544Z,82.17
2024-05-09T20:23:32.916Z,82.78
2024-05-09T20:26:00.406Z,82.71
2024-05-09T20:28:30.573Z,82.68
2024-05-09T20:30:58.094Z,82.01
2024-05-09T20:33:28.198Z,82.04
2024-05-09T20:36:01.650Z,82.87
2024-05-09T20:38:32.238Z,82.11
2024-05-09T20:40:59.768Z,82.67
2024-05-09T20:43:29.889Z,82.97
2024-05-09T20:45:57.485Z,83.03
2024-05-09T20:48:27.587Z,83.66
2024-05-09T20:50:57.688Z,83.80
2024-05-09T20:53:27.682Z,83.97
2024-05-09T20:55:57.696Z,83.95
2024-05-09T20:58:25.301Z,83.81
2024-05-09T21:00:55.470Z,84.03
2024-05-09T21:03:23.026Z,85.30
2024-05-09T21:05:53.247Z,83.76
2024-05-09T21:08:23.870Z,84.41
2024-05-09T21:10:54.056Z,84.00
2024-05-09T21:13:21.583Z,84.97
2024-05-09T21:15:51.708Z,84.59
2024-05-09T21:18:19.444Z,84.52
2024-05-09T21:20:49.504Z,84.77
2024-05-09T21:23:17.403Z,84.24
2024-05-09T21:25:50.034Z,84.57
2024-05-09T21:28:17.455Z,85.33
2024-05-09T21:30:47.677Z,85.29
2024-05-09T21:33:15.540Z,84.99
2024-05-09T21:35:46.179Z,85.03
2024-05-09T21:38:14.796Z,85.31
2024-05-09T21:40:46.316Z,86.54
2024-05-09T21:43:16.437Z,86.83
2024-05-09T21:45:46.658Z,87.59
2024-05-09T21:48:14.147Z,86.94
2024-05-09T21:50:44.468Z,88.25
2024-05-09T21:53:12.744Z,87.55
2024-05-09T21:55:44.086Z,88.45
2024-05-09T21:58:13.209Z,88.74
2024-05-09T22:00:46.581Z,88.50
2024-05-09T22:03:14.644Z,89.01
2024-05-09T22:05:45.283Z,88.71
2024-05-09T22:08:13.163Z,88.86
2024-05-09T22:10:43.526Z,88.61
2024-05-09T22:13:11.150Z,88.40
2024-05-09T22:15:42.597Z,88.92
2024-05-09T22:18:12.895Z,89.74
2024-05-09T22:20:45.669Z,89.50
2024-05-09T22:23:14.877Z,89.42
2024-05-09T22:25:45.450Z,90.01
2024-05-09T22:28:15.384Z,90.25
2024-05-09T22:30:47.239Z,90.32
2024-05-09T22:33:18.007Z,90.43
2024-05-09T22:35:48.222Z,90.62
2024-05-09T22:38:15.741Z,90.97
2024-05-09T22:40:48.988Z,91.55
2024-05-09T22:43:19.550Z,92.00
2024-05-09T22:45:50.354Z,92.16
2024-05-09T22:48:20.755Z,92.38
2024-05-09T22:50:50.897Z,92.86
2024-05-09T22:53:18.390Z,93.59
2024-05-09T22:55:48.412Z,94.12
2024-05-09T22:58:15.953Z,94.53
2024-05-09T23:00:46.117Z,94.37
2024-05-09T23:03:15.953Z,94.31
2024-05-09T23:05:48.607Z,94.23
2024-05-09T23:08:16.145Z,94.72
2024-05-09T23:10:46.297Z,94.26
2024-05-09T23:13:13.873Z,94.67
2024-05-09T23:15:44.086Z,95.75
2024-05-09T23:18:11.713Z,96.22
2024-05-09T23:20:41.787Z,95.98
2024-05-09T23:23:12.325Z,96.41
2024-05-09T23:25:43.669Z,98.42
2024-05-09T23:28:12.713Z,100.00
2024-05-09T23:30:43.010Z,100.00
2024-05-09T23:33:11.931Z,100.00
2024-05-09T23:35:44.538Z,100.00
2024-05-09T23:38:15.012Z,100.00
2024-05-09T23:40:45.137Z,100.00
2024-05-09T23:43:13.198Z,100.00
2024-05-09T23:45:43.854Z,100.00
2024-05-09T23:48:11.744Z,100.00
2024-05-09T23:50:42.046Z,100.00
2024-05-09T23:53:10.446Z,100.00
2024-05-09T23:55:43.712Z,100.00
2024-05-09T23:58:11.892Z,100.00
